Data for 05/06/2005

Time Sea-Level Adjusted Pressure Absolute Pressure Temperature Relative Humidity Dew Point   
(mb) (inHg) (mb) (inHg) (C) (F) (%) (C) (F)
00:05 1012 29.88 841 24.83 10.9 51.6 66 4.7 40.5
00:10 1012 29.88 841 24.83 10.8 51.5 66 4.8 40.7
00:15 1012 29.88 841 24.83 10.9 51.5 66 4.8 40.6
00:20 1012 29.88 841 24.83 10.9 51.6 66 4.8 40.6
00:25 1012 29.88 841 24.83 10.9 51.6 66 4.7 40.5
00:30 1012 29.88 841 24.83 10.9 51.6 66 4.7 40.5
00:35 1012 29.88 841 24.83 10.7 51.3 66 4.7 40.5
00:40 1012 29.88 841 24.83 10.6 51.1 67 4.8 40.7
00:45 1012 29.88 841 24.83 10.5 50.8 67 4.7 40.4
00:50 1012 29.88 841 24.83 10.4 50.7 67 4.7 40.4
00:55 1011 29.85 841 24.83 10.4 50.8 67 4.7 40.5
01:00 1011 29.85 841 24.83 10.4 50.8 67 4.6 40.4
01:05 1011 29.85 841 24.83 10.4 50.6 67 4.6 40.3
01:10 1011 29.85 840 24.81 10.4 50.7 67 4.6 40.4
01:15 1011 29.85 841 24.83 10.3 50.6 68 4.7 40.4
01:20 1011 29.85 840 24.81 10.3 50.6 67 4.6 40.3
01:25 1011 29.85 841 24.83 10.5 50.8 65 4.3 39.7
01:30 1011 29.85 840 24.81 10.7 51.3 64 4.3 39.8
01:35 1011 29.85 840 24.81 10.7 51.3 64 4.3 39.7
01:40 1011 29.85 840 24.81 10.6 51.1 63 4 39.2
01:45 1011 29.85 840 24.81 10.5 51 64 4 39.2
01:50 1011 29.85 840 24.81 10.2 50.4 66 4.1 39.4
01:55 1011 29.85 840 24.81 10.5 50.8 64 4.1 39.3
02:00 1011 29.85 840 24.81 10.7 51.3 63 4 39.2
02:05 1011 29.85 840 24.81 10.9 51.5 63 4.1 39.4
02:10 1011 29.85 840 24.81 10.8 51.4 63 4 39.2
02:15 1011 29.85 840 24.81 10.3 50.6 70 5.1 41.2
02:20 1011 29.85 840 24.81 9.8 49.6 67 3.9 39.1
02:25 1011 29.85 840 24.81 9.3 48.8 70 4.2 39.6
02:30 1011 29.85 840 24.81 8.9 48.1 69 3.6 38.4
02:35 1011 29.85 840 24.81 9.5 49.1 68 4 39.2
02:40 1011 29.85 840 24.81 9.4 49 69 4.1 39.4
02:45 1011 29.85 840 24.81 9.1 48.5 71 4.2 39.5
02:50 1011 29.85 840 24.81 8.9 48 71 4 39.1
02:55 1010 29.83 840 24.81 8.9 48.1 69 3.6 38.5
03:00 1010 29.83 840 24.81 9 48.2 70 3.9 39
03:05 1010 29.83 840 24.81 8.8 47.8 70 3.7 38.7
03:10 1010 29.83 840 24.81 8.4 47.2 71 3.4 38.2
03:15 1010 29.83 840 24.81 8.5 47.3 71 3.5 38.3
03:20 1010 29.83 840 24.81 8.5 47.3 72 3.7 38.6
03:25 1010 29.83 840 24.81 8.4 47.1 71 3.5 38.3
03:30 1010 29.83 840 24.81 8.6 47.4 71 3.6 38.5
03:35 1010 29.83 840 24.81 8.8 47.9 70 3.7 38.7
03:40 1010 29.83 840 24.81 7.9 46.3 75 3.8 38.9
03:45 1010 29.83 839 24.78 7.4 45.4 76 3.5 38.2
03:50 1010 29.83 840 24.81 7.7 45.8 75 3.5 38.3
03:55 1010 29.83 840 24.81 7.8 46 74 3.5 38.4
04:00 1010 29.83 839 24.78 8.5 47.3 70 3.4 38
04:05 1010 29.83 839 24.78 8.9 48.1 69 3.5 38.3
04:10 1010 29.83 839 24.78 8.7 47.6 70 3.5 38.3
04:15 1010 29.83 839 24.78 8.8 47.8 69 3.4 38.1
04:20 1010 29.83 839 24.78 8.7 47.6 70 3.5 38.2
04:25 1010 29.83 839 24.78 8.8 47.8 69 3.5 38.3
04:30 1010 29.83 839 24.78 8.7 47.6 70 3.6 38.5
04:35 1010 29.83 839 24.78 8.7 47.7 69 3.3 37.9
04:40 1010 29.83 839 24.78 8.9 48 69 3.4 38.2
04:45 1010 29.83 839 24.78 9 48.3 68 3.5 38.3
04:50 1010 29.83 839 24.78 8.8 47.8 69 3.4 38.2
04:55 1010 29.83 839 24.78 8.7 47.7 69 3.3 37.9
05:00 1010 29.83 839 24.78 8.3 47 71 3.3 38
05:05 1010 29.83 839 24.78 8.5 47.3 69 3.3 37.9
05:10 1010 29.83 839 24.78 8.5 47.4 69 3.1 37.6
05:15 1010 29.83 839 24.78 8.9 48.1 67 3.1 37.6
05:20 1010 29.83 839 24.78 8.8 47.9 68 3.2 37.8
05:25 1010 29.83 839 24.78 8.6 47.5 68 3.1 37.7
05:30 1010 29.83 839 24.78 8.6 47.6 69 3.2 37.8
05:35 1010 29.83 839 24.78 8.9 47.9 67 3.2 37.7
05:40 1010 29.83 839 24.78 9 48.3 67 3.2 37.8
05:45 1010 29.83 839 24.78 9.1 48.4 67 3.3 38
05:50 1010 29.83 839 24.78 9.1 48.4 67 3.3 37.9
05:55 1010 29.83 839 24.78 8.8 47.9 68 3.2 37.7
06:00 1010 29.83 839 24.78 8.7 47.7 68 3.2 37.7
06:05 1010 29.83 839 24.78 8.7 47.6 68 3.1 37.5
06:10 1010 29.83 839 24.78 8.8 47.9 67 3 37.4
06:15 1010 29.83 839 24.78 8.7 47.7 68 3.1 37.6
06:20 1010 29.83 839 24.78 8.6 47.4 68 3 37.4
06:25 1010 29.83 839 24.78 8.4 47.1 68 2.8 37.1
06:30 1010 29.83 839 24.78 8.2 46.7 69 2.8 37.1
06:35 1010 29.83 839 24.78 8.2 46.7 69 2.9 37.1
06:40 1010 29.83 839 24.78 8 46.4 70 2.9 37.3
06:45 1010 29.83 839 24.78 8.1 46.6 69 2.8 37
06:50 1010 29.83 839 24.78 8.7 47.6 67 2.9 37.2
06:55 1010 29.83 839 24.78 9 48.2 66 3.1 37.5
07:00 1010 29.83 839 24.78 8.8 47.8 68 3.2 37.8
07:05 1010 29.83 839 24.78 8.4 47.1 68 2.8 37
07:10 1010 29.83 839 24.78 8.7 47.6 67 2.8 37.1
07:15 1010 29.83 839 24.78 9 48.1 65 2.8 37.1
07:20 1010 29.83 839 24.78 9.2 48.5 66 3.1 37.6
07:25 1010 29.83 839 24.78 9.1 48.4 65 3 37.4
07:30 1010 29.83 839 24.78 9 48.1 68 3.4 38.1
07:35 1009 29.8 839 24.78 8.8 47.8 70 3.6 38.4
07:40 1010 29.83 839 24.78 8.5 47.3 70 3.4 38.1
07:45 1009 29.8 839 24.78 8.7 47.6 70 3.5 38.3
07:50 1009 29.8 839 24.78 8.8 47.9 68 3.2 37.8
07:55 1009 29.8 839 24.78 9.5 49 65 3.3 38
08:00 1009 29.8 839 24.78 9.6 49.3 65 3.4 38.2
08:05 1010 29.83 839 24.78 9.8 49.6 65 3.5 38.3
08:10 1010 29.83 839 24.78 10.2 50.3 64 3.6 38.5
08:15 1010 29.83 839 24.78 10.8 51.4 64 4.2 39.5
08:20 1010 29.83 839 24.78 10.9 51.6 63 4.2 39.5
08:25 1010 29.83 839 24.78 11.3 52.4 63 4.5 40
08:30 1010 29.83 839 24.78 11.7 53.1 61 4.6 40.2
08:35 1010 29.83 839 24.78 12.4 54.4 56 3.9 39
08:40 1010 29.83 839 24.78 13.4 56.2 53 4.1 39.3
08:45 1010 29.83 839 24.78 13.6 56.4 53 4.4 39.9
08:50 1010 29.83 839 24.78 14.5 58.1 51 4.5 40
08:55 1010 29.83 839 24.78 14.8 58.7 52 5.2 41.4
09:00 1010 29.83 839 24.78 15.2 59.4 48 4.3 39.8
09:05 1010 29.83 839 24.78 15.1 59.3 48 4.3 39.7
09:10 1010 29.83 839 24.78 15.1 59.1 48 4.4 39.9
09:15 1010 29.83 839 24.78 15.2 59.4 48 4.3 39.7
09:20 1010 29.83 839 24.78 15.8 60.4 47 4.5 40.1
09:25 1010 29.83 839 24.78 15.2 59.4 53 5.7 42.3
09:30 1010 29.83 839 24.78 15.1 59.1 49 4.5 40.1
09:35 1010 29.83 839 24.78 15.2 59.3 54 5.9 42.6
09:40 1010 29.83 839 24.78 13.9 57 57 5.7 42.2
09:45 1010 29.83 839 24.78 13.4 56.2 58 5.4 41.8
09:50 1010 29.83 839 24.78 14.2 57.6 54 5.1 41.2
09:55 1010 29.83 839 24.78 14.9 58.9 51 4.9 40.9
10:00 1010 29.83 839 24.78 15.6 60 49 5.1 41.1
10:05 1010 29.83 839 24.78 16.1 61 47 4.8 40.7
10:10 1010 29.83 839 24.78 15.7 60.3 47 4.6 40.2
10:15 1010 29.83 839 24.78 16.4 61.5 46 4.8 40.6
10:20 1009 29.8 839 24.78 17.4 63.3 43 4.8 40.6
10:25 1009 29.8 839 24.78 17.6 63.7 44 5.2 41.4
10:30 1009 29.8 839 24.78 17.3 63.1 44 5.2 41.3
10:35 1009 29.8 839 24.78 18 64.3 44 5.5 42
10:40 1009 29.8 839 24.78 18.3 64.9 42 5.4 41.7
10:45 1009 29.8 839 24.78 18.2 64.8 44 5.8 42.5
10:50 1009 29.8 839 24.78 18.2 64.7 43 5.4 41.7
10:55 1009 29.8 838 24.75 16.9 62.4 48 6 42.8
11:00 1009 29.8 838 24.75 16.6 61.9 43 3.9 39.1
11:05 1009 29.8 838 24.75 18.3 65 38 4 39.1
11:10 1009 29.8 838 24.75 18.1 64.5 40 4.3 39.7
11:15 1009 29.8 838 24.75 18.2 64.8 38 3.7 38.7
11:20 1009 29.8 838 24.75 18.8 65.8 35 3 37.4
11:25 1009 29.8 838 24.75 18.4 65.1 36 3.3 37.9
11:30 1009 29.8 838 24.75 17.9 64.2 39 4 39.2
11:35 1009 29.8 838 24.75 17.9 64.3 36 2.7 36.9
11:40 1009 29.8 838 24.75 17.6 63.6 37 2.8 37
11:45 1009 29.8 838 24.75 18.6 65.4 34 2.4 36.3
11:50 1009 29.8 838 24.75 19.3 66.7 33 2.9 37.3
11:55 1009 29.8 838 24.75 18.6 65.4 34 2.4 36.4
12:00 1009 29.8 838 24.75 18.2 64.8 35 2.5 36.5
12:05 1008 29.77 838 24.75 18.5 65.3 35 2.8 37
12:10 1008 29.77 838 24.75 18.5 65.2 35 2.7 36.9
12:15 1008 29.77 838 24.75 18.5 65.3 31 1.2 34.1
12:20 1008 29.77 838 24.75 18.4 65.1 32 1.7 35.1
12:25 1008 29.77 838 24.75 18.2 64.8 33 2 35.6
12:30 1008 29.77 838 24.75 17.3 63.1 36 2.3 36.1
12:35 1008 29.77 837 24.72 17 62.5 35 1.5 34.8
12:40 1008 29.77 838 24.75 17.3 63.2 34 1.5 34.7
12:45 1008 29.77 838 24.75 17.7 63.8 35 2.3 36.1
12:50 1008 29.77 838 24.75 17.1 62.7 37 2.6 36.6
12:55 1008 29.77 838 24.75 17.1 62.8 40 3.6 38.5
13:00 1008 29.77 838 24.75 16.8 62.3 37 2.3 36.2
13:05 1008 29.77 838 24.75 17 62.6 38 2.6 36.7
13:10 1008 29.77 838 24.75 16.9 62.5 35 1.5 34.6
13:15 1008 29.77 838 24.75 17 62.6 33 0.5 33
13:20 1008 29.77 838 24.75 16.8 62.2 33 0.5 32.9
13:25 1008 29.77 838 24.75 17.1 62.7 32 0.4 32.8
13:30 1008 29.77 837 24.72 17.3 63.2 31 0.3 32.6
13:35 1008 29.77 838 24.75 17.7 63.8 31 0.3 32.5
13:40 1008 29.77 838 24.75 17.7 63.8 32 0.8 33.5
13:45 1008 29.77 838 24.75 17.9 64.2 32 1.1 34.1
13:50 1008 29.77 838 24.75 17.7 63.9 29 -0.3 31.4
13:55 1008 29.77 837 24.72 17.7 63.8 27 -1.3 29.7
14:00 1008 29.77 837 24.72 17.7 63.9 28 -1 30.1
14:05 1008 29.77 838 24.75 17.8 64.1 29 -0.3 31.5
14:10 1008 29.77 838 24.75 17.8 64 27 -1.2 29.8
14:15 1008 29.77 837 24.72 17.8 64 26 -1.9 28.5
14:20 1008 29.77 838 24.75 18.3 64.9 27 -1 30.2
14:25 1008 29.77 838 24.75 18.1 64.6 27 -0.8 30.5
14:30 1008 29.77 837 24.72 18.2 64.8 28 -0.6 30.9
14:35 1008 29.77 837 24.72 18.3 65 27 -0.7 30.7
14:40 1008 29.77 837 24.72 18.5 65.3 27 -0.7 30.7
14:45 1008 29.77 837 24.72 18.4 65.1 28 -0.5 31
14:50 1008 29.77 837 24.72 18.3 65 27 -0.8 30.5
14:55 1008 29.77 837 24.72 18.6 65.5 27 -0.6 30.9
15:00 1008 29.77 837 24.72 18.7 65.7 26 -0.8 30.5
15:05 1008 29.77 837 24.72 18.2 64.8 27 -1.1 30
15:10 1008 29.77 837 24.72 19 66.3 27 -0.2 31.7
15:15 1008 29.77 837 24.72 18.8 65.8 28 0 32.1
15:20 1008 29.77 837 24.72 19.2 66.5 28 0.4 32.7
15:25 1008 29.77 837 24.72 20.2 68.3 26 0.4 32.8
15:30 1008 29.77 837 24.72 19.9 67.9 26 -0 32
15:35 1008 29.77 837 24.72 20.3 68.6 26 0.2 32.4
15:40 1008 29.77 837 24.72 20.1 68.2 26 0.4 32.7
15:45 1008 29.77 837 24.72 19.5 67.1 27 0.3 32.5
15:50 1008 29.77 837 24.72 20 68 26 -0 32
15:55 1008 29.77 837 24.72 20.1 68.2 26 0.4 32.7
16:00 1008 29.77 837 24.72 20.7 69.2 25 0 32
16:05 1008 29.77 837 24.72 21.6 70.9 23 -0.2 31.7
16:10 1008 29.77 837 24.72 22.2 71.9 22 -0.1 31.8
16:15 1007 29.74 837 24.72 21.8 71.2 23 -0.1 31.8
16:20 1007 29.74 837 24.72 20.9 69.6 24 0 32.1
16:25 1007 29.74 837 24.72 20.4 68.6 24 -1 30.2
16:30 1007 29.74 837 24.72 20 67.9 24 -1.1 29.9
16:35 1007 29.74 837 24.72 19.7 67.5 24 -1.3 29.6
16:40 1008 29.77 837 24.72 19.6 67.2 23 -2 28.4
16:45 1008 29.77 837 24.72 19.4 66.8 23 -1.9 28.5
16:50 1008 29.77 837 24.72 19.1 66.3 25 -1.5 29.3
16:55 1007 29.74 837 24.72 19 66.2 24 -1.8 28.7
17:00 1007 29.74 837 24.72 19.3 66.7 24 -1.6 29.1
17:05 1007 29.74 837 24.72 19.5 67.1 23 -2 28.3
17:10 1007 29.74 837 24.72 19.9 67.7 23 -1.7 28.9
17:15 1007 29.74 837 24.72 20.3 68.5 22 -1.9 28.6
17:20 1007 29.74 837 24.72 20.1 68.1 23 -1.7 28.9
17:25 1007 29.74 837 24.72 20.2 68.4 24 -1 30.2
17:30 1007 29.74 837 24.72 19.9 67.9 23 -1.5 29.3
17:35 1007 29.74 837 24.72 19.4 66.9 24 -1.5 29.4
17:40 1007 29.74 837 24.72 19.7 67.4 24 -1.2 29.9
17:45 1007 29.74 837 24.72 20.3 68.5 24 -1 30.1
17:50 1007 29.74 837 24.72 20.4 68.7 23 -1.3 29.7
17:55 1007 29.74 837 24.72 19.9 67.8 24 -1 30.2
18:00 1007 29.74 837 24.72 20 68.1 23 -1.4 29.5
18:05 1007 29.74 837 24.72 19.5 67.2 23 -1.8 28.8
18:10 1007 29.74 837 24.72 19.7 67.4 24 -1.4 29.5
18:15 1007 29.74 837 24.72 19.7 67.5 24 -1.5 29.4
18:20 1007 29.74 837 24.72 19 66.1 24 -1.7 28.9
18:25 1007 29.74 837 24.72 18.9 66.1 25 -1.5 29.3
18:30 1007 29.74 836 24.69 19 66.2 26 -0.5 31
18:35 1007 29.74 836 24.69 18.6 65.4 28 -0 32
18:40 1007 29.74 836 24.69 18.5 65.3 27 -0.6 30.9
18:45 1007 29.74 836 24.69 18.5 65.3 28 -0 32
18:50 1007 29.74 836 24.69 18.5 65.2 28 -0.4 31.2
18:55 1007 29.74 836 24.69 18.2 64.8 30 0.4 32.7
19:00 1007 29.74 836 24.69 17.9 64.2 32 1.1 33.9
19:05 1007 29.74 836 24.69 17.7 63.8 32 1 33.9
19:10 1007 29.74 836 24.69 17.4 63.4 35 1.9 35.3
19:15 1007 29.74 836 24.69 17.2 62.9 34 1.3 34.4
19:20 1007 29.74 836 24.69 17.2 63 35 1.6 34.9
19:25 1007 29.74 836 24.69 17.2 63 33 1.1 34
19:30 1007 29.74 836 24.69 17.3 63.2 31 0.1 32.1
19:35 1007 29.74 836 24.69 17.3 63.2 33 1.2 34.1
19:40 1007 29.74 836 24.69 17 62.7 35 1.7 35.1
19:45 1007 29.74 836 24.69 16.8 62.3 35 1.3 34.4
19:50 1007 29.74 837 24.72 16.7 62 35 1.3 34.4
19:55 1007 29.74 837 24.72 16.4 61.5 38 2.1 35.8
20:00 1007 29.74 837 24.72 16.2 61.2 37 1.4 34.6
20:05 1007 29.74 837 24.72 16.2 61.1 36 1.1 34
20:10 1007 29.74 837 24.72 16.2 61.2 34 0.6 33.1
20:15 1007 29.74 837 24.72 16 60.9 35 0.9 33.6
20:20 1007 29.74 837 24.72 15.8 60.4 33 -0.2 31.7
20:25 1007 29.74 837 24.72 16 60.7 34 0.2 32.3
20:30 1008 29.77 837 24.72 15.7 60.3 34 0 32
20:35 1008 29.77 837 24.72 15.6 60.1 34 -0.1 31.8
20:40 1008 29.77 837 24.72 15.4 59.7 34 -0.5 31.2
20:45 1008 29.77 837 24.72 15.3 59.6 35 0 32.1
20:50 1008 29.77 837 24.72 15.3 59.5 35 -0 32
20:55 1008 29.77 837 24.72 15.1 59.1 35 -0.2 31.7
21:00 1008 29.77 837 24.72 14.8 58.7 37 0.4 32.7
21:05 1008 29.77 837 24.72 14.5 58.1 40 1 33.8
21:10 1008 29.77 837 24.72 14.3 57.7 40 0.9 33.6
21:15 1008 29.77 837 24.72 14.2 57.6 40 1 33.8
21:20 1008 29.77 837 24.72 14.2 57.6 40 0.7 33.3
21:25 1008 29.77 837 24.72 14 57.2 41 1 33.8
21:30 1008 29.77 837 24.72 13.8 56.8 42 1 33.8
21:35 1008 29.77 837 24.72 13.3 55.9 45 1.6 34.8
21:40 1008 29.77 837 24.72 13 55.3 45 1.5 34.7
21:45 1008 29.77 837 24.72 12.8 55 47 1.8 35.2
21:50 1008 29.77 837 24.72 12.7 54.8 46 1.3 34.3
21:55 1008 29.77 837 24.72 12.8 55 45 1.2 34.1
22:00 1008 29.77 837 24.72 12.8 55 44 0.8 33.5
22:05 1008 29.77 837 24.72 12.9 55.2 43 0.8 33.4
22:10 1008 29.77 837 24.72 12.9 55.1 43 0.6 33
22:15 1008 29.77 837 24.72 12.6 54.8 46 1.3 34.3
22:20 1008 29.77 837 24.72 12.2 54 45 0.8 33.4
22:25 1008 29.77 837 24.72 12.2 54 44 0.5 32.8
22:30 1008 29.77 837 24.72 12.3 54.2 45 0.7 33.3
22:35 1008 29.77 837 24.72 12.2 53.9 47 1.4 34.4
22:40 1008 29.77 837 24.72 11.8 53.2 46 0.5 32.9
22:45 1008 29.77 837 24.72 12.2 53.9 45 0.6 33
22:50 1008 29.77 837 24.72 12.1 53.9 45 0.6 33
22:55 1008 29.77 838 24.75 12.2 53.9 44 0.5 32.8
23:00 1008 29.77 838 24.75 12.3 54.1 44 0.5 33
23:05 1008 29.77 838 24.75 12.3 54.1 44 0.6 33
23:10 1008 29.77 838 24.75 12.1 53.9 46 0.9 33.6
23:15 1008 29.77 838 24.75 12.2 53.9 45 0.7 33.3
23:20 1008 29.77 838 24.75 12.1 53.8 46 0.8 33.5
23:25 1009 29.8 838 24.75 11.9 53.5 46 0.8 33.5
23:30 1009 29.8 838 24.75 11.7 53.1 47 0.8 33.5
23:35 1009 29.8 838 24.75 11.6 52.8 47 0.8 33.5
23:40 1008 29.77 838 24.75 11.7 53 47 0.7 33.3
23:45 1008 29.77 838 24.75 11.9 53.3 47 0.9 33.6
23:50 1008 29.77 838 24.75 11.9 53.3 47 1.1 34
23:55 1008 29.77 838 24.75 11.6 52.9 48 0.9 33.7
24:00 1008 29.77 838 24.75 11.6 52.9 48 1.2 34.1